sensor_id;sensor_type;location;lat;lon;timestamp;temperature;humidity
6307;DHT22;3186;54.062;9.962;2024-03-02T00:00:37;8.20;99.90
6307;DHT22;3186;54.062;9.962;2024-03-02T00:03:04;8.20;99.90
6307;DHT22;3186;54.062;9.962;2024-03-02T00:05:29;8.20;99.90
6307;DHT22;3186;54.062;9.962;2024-03-02T00:07:56;8.20;99.90
6307;DHT22;3186;54.062;9.962;2024-03-02T00:10:43;8.20;99.90
6307;DHT22;3186;54.062;9.962;2024-03-02T00:13:10;8.20;99.90
6307;DHT22;3186;54.062;9.962;2024-03-02T00:15:42;8.20;99.90
6307;DHT22;3186;54.062;9.962;2024-03-02T00:18:12;8.20;99.90
6307;DHT22;3186;54.062;9.962;2024-03-02T00:20:39;8.30;99.90
6307;DHT22;3186;54.062;9.962;2024-03-02T00:23:07;8.30;99.90
6307;DHT22;3186;54.062;9.962;2024-03-02T00:25:52;8.20;99.90
6307;DHT22;3186;54.062;9.962;2024-03-02T00:28:26;8.20;99.90
6307;DHT22;3186;54.062;9.962;2024-03-02T00:31:06;8.20;99.90
6307;DHT22;3186;54.062;9.962;2024-03-02T00:33:46;8.20;99.90
6307;DHT22;3186;54.062;9.962;2024-03-02T00:36:15;8.30;99.90
6307;DHT22;3186;54.062;9.962;2024-03-02T00:38:48;8.30;99.90
6307;DHT22;3186;54.062;9.962;2024-03-02T00:41:21;8.30;99.90
6307;DHT22;3186;54.062;9.962;2024-03-02T00:44:01;8.30;99.90
6307;DHT22;3186;54.062;9.962;2024-03-02T00:46:34;8.30;99.90
6307;DHT22;3186;54.062;9.962;2024-03-02T00:49:01;8.30;99.90
6307;DHT22;3186;54.062;9.962;2024-03-02T00:51:29;8.30;99.90
6307;DHT22;3186;54.062;9.962;2024-03-02T00:53:58;8.30;99.90
6307;DHT22;3186;54.062;9.962;2024-03-02T00:56:24;8.30;99.90
6307;DHT22;3186;54.062;9.962;2024-03-02T00:58:51;8.30;99.90
6307;DHT22;3186;54.062;9.962;2024-03-02T01:01:17;8.30;99.90
6307;DHT22;3186;54.062;9.962;2024-03-02T01:03:43;8.30;99.90
6307;DHT22;3186;54.062;9.962;2024-03-02T01:06:09;8.30;99.90
6307;DHT22;3186;54.062;9.962;2024-03-02T01:08:35;8.30;99.90
6307;DHT22;3186;54.062;9.962;2024-03-02T01:11:01;8.30;99.90
6307;DHT22;3186;54.062;9.962;2024-03-02T01:13:27;8.30;99.90
6307;DHT22;3186;54.062;9.962;2024-03-02T01:15:53;8.20;99.90
6307;DHT22;3186;54.062;9.962;2024-03-02T01:18:19;8.30;99.90
6307;DHT22;3186;54.062;9.962;2024-03-02T01:20:44;8.30;99.90
6307;DHT22;3186;54.062;9.962;2024-03-02T01:23:11;8.30;99.90
6307;DHT22;3186;54.062;9.962;2024-03-02T01:25:36;8.30;99.90
6307;DHT22;3186;54.062;9.962;2024-03-02T01:28:02;8.30;99.90
6307;DHT22;3186;54.062;9.962;2024-03-02T01:30:28;8.30;99.90
6307;DHT22;3186;54.062;9.962;2024-03-02T01:32:54;8.30;99.90
6307;DHT22;3186;54.062;9.962;2024-03-02T01:35:19;8.30;99.90
6307;DHT22;3186;54.062;9.962;2024-03-02T01:37:45;8.30;99.90
6307;DHT22;3186;54.062;9.962;2024-03-02T01:40:11;8.30;99.90
6307;DHT22;3186;54.062;9.962;2024-03-02T01:42:37;8.30;99.90
6307;DHT22;3186;54.062;9.962;2024-03-02T01:45:07;8.30;99.90
6307;DHT22;3186;54.062;9.962;2024-03-02T01:47:33;8.30;99.90
6307;DHT22;3186;54.062;9.962;2024-03-02T01:49:59;8.30;99.90
6307;DHT22;3186;54.062;9.962;2024-03-02T01:52:26;8.40;99.90
6307;DHT22;3186;54.062;9.962;2024-03-02T01:54:51;8.30;99.90
6307;DHT22;3186;54.062;9.962;2024-03-02T01:57:17;8.30;99.90
6307;DHT22;3186;54.062;9.962;2024-03-02T01:59:43;8.50;99.90
6307;DHT22;3186;54.062;9.962;2024-03-02T02:02:09;8.30;99.90
6307;DHT22;3186;54.062;9.962;2024-03-02T02:04:35;8.30;99.90
6307;DHT22;3186;54.062;9.962;2024-03-02T02:07:01;8.30;99.90
6307;DHT22;3186;54.062;9.962;2024-03-02T02:09:26;8.20;99.90
6307;DHT22;3186;54.062;9.962;2024-03-02T02:11:52;8.20;99.90
6307;DHT22;3186;54.062;9.962;2024-03-02T02:14:18;8.20;99.90
6307;DHT22;3186;54.062;9.962;2024-03-02T02:16:44;8.30;99.90
6307;DHT22;3186;54.062;9.962;2024-03-02T02:19:09;8.30;99.90
6307;DHT22;3186;54.062;9.962;2024-03-02T02:21:36;8.30;99.90
6307;DHT22;3186;54.062;9.962;2024-03-02T02:24:01;8.30;99.90
6307;DHT22;3186;54.062;9.962;2024-03-02T02:26:29;8.30;99.90
6307;DHT22;3186;54.062;9.962;2024-03-02T02:28:55;8.30;99.90
6307;DHT22;3186;54.062;9.962;2024-03-02T02:31:20;8.30;99.90
6307;DHT22;3186;54.062;9.962;2024-03-02T02:33:46;8.30;99.90
6307;DHT22;3186;54.062;9.962;2024-03-02T02:36:12;8.30;99.90
6307;DHT22;3186;54.062;9.962;2024-03-02T02:38:44;8.30;99.90
6307;DHT22;3186;54.062;9.962;2024-03-02T02:41:09;8.30;99.90
6307;DHT22;3186;54.062;9.962;2024-03-02T02:43:35;8.30;99.90
6307;DHT22;3186;54.062;9.962;2024-03-02T02:46:01;8.30;99.90
6307;DHT22;3186;54.062;9.962;2024-03-02T02:48:26;8.30;99.90
6307;DHT22;3186;54.062;9.962;2024-03-02T02:50:52;8.30;99.90
6307;DHT22;3186;54.062;9.962;2024-03-02T02:53:17;8.30;99.90
6307;DHT22;3186;54.062;9.962;2024-03-02T02:55:43;8.30;99.90
6307;DHT22;3186;54.062;9.962;2024-03-02T02:58:09;8.30;99.90
6307;DHT22;3186;54.062;9.962;2024-03-02T03:00:35;8.30;99.90
6307;DHT22;3186;54.062;9.962;2024-03-02T03:03:02;8.20;99.90
6307;DHT22;3186;54.062;9.962;2024-03-02T03:05:28;8.20;99.90
6307;DHT22;3186;54.062;9.962;2024-03-02T03:07:53;8.20;99.90
6307;DHT22;3186;54.062;9.962;2024-03-02T03:10:19;8.20;99.90
6307;DHT22;3186;54.062;9.962;2024-03-02T03:12:47;8.40;99.90
6307;DHT22;3186;54.062;9.962;2024-03-02T03:15:13;8.20;99.90
6307;DHT22;3186;54.062;9.962;2024-03-02T03:17:40;8.20;99.90
6307;DHT22;3186;54.062;9.962;2024-03-02T03:20:06;8.20;99.90
6307;DHT22;3186;54.062;9.962;2024-03-02T03:22:35;8.20;99.90
6307;DHT22;3186;54.062;9.962;2024-03-02T03:25:01;8.20;99.90
6307;DHT22;3186;54.062;9.962;2024-03-02T03:27:27;8.20;99.90
6307;DHT22;3186;54.062;9.962;2024-03-02T03:33:33;8.20;99.90
6307;DHT22;3186;54.062;9.962;2024-03-02T03:36:00;8.30;99.90
6307;DHT22;3186;54.062;9.962;2024-03-02T03:38:25;8.30;99.90
6307;DHT22;3186;54.062;9.962;2024-03-02T03:40:51;8.20;99.90
6307;DHT22;3186;54.062;9.962;2024-03-02T03:43:16;8.20;99.90
6307;DHT22;3186;54.062;9.962;2024-03-02T03:45:42;8.30;99.90
6307;DHT22;3186;54.062;9.962;2024-03-02T03:48:08;8.20;99.90
6307;DHT22;3186;54.062;9.962;2024-03-02T03:50:34;8.20;99.90
6307;DHT22;3186;54.062;9.962;2024-03-02T03:53:00;8.20;99.90
6307;DHT22;3186;54.062;9.962;2024-03-02T03:55:25;8.20;99.90
6307;DHT22;3186;54.062;9.962;2024-03-02T03:57:51;8.20;99.90
6307;DHT22;3186;54.062;9.962;2024-03-02T04:00:17;8.20;99.90
6307;DHT22;3186;54.062;9.962;2024-03-02T04:02:42;8.20;99.90
6307;DHT22;3186;54.062;9.962;2024-03-02T04:05:08;8.20;99.90
6307;DHT22;3186;54.062;9.962;2024-03-02T04:07:36;8.20;99.90
6307;DHT22;3186;54.062;9.962;2024-03-02T04:10:07;8.20;99.90
6307;DHT22;3186;54.062;9.962;2024-03-02T04:12:34;8.10;99.90
6307;DHT22;3186;54.062;9.962;2024-03-02T04:15:01;8.10;99.90
6307;DHT22;3186;54.062;9.962;2024-03-02T04:17:27;8.00;99.90
6307;DHT22;3186;54.062;9.962;2024-03-02T04:19:52;8.10;99.90
6307;DHT22;3186;54.062;9.962;2024-03-02T04:22:18;8.10;99.90
6307;DHT22;3186;54.062;9.962;2024-03-02T04:24:44;8.10;99.90
6307;DHT22;3186;54.062;9.962;2024-03-02T04:27:09;8.10;99.90
6307;DHT22;3186;54.062;9.962;2024-03-02T04:29:35;8.10;99.90
6307;DHT22;3186;54.062;9.962;2024-03-02T04:32:01;8.00;99.90
6307;DHT22;3186;54.062;9.962;2024-03-02T04:34:26;8.10;99.90
6307;DHT22;3186;54.062;9.962;2024-03-02T04:36:52;8.00;99.90
6307;DHT22;3186;54.062;9.962;2024-03-02T04:39:17;8.00;99.90
6307;DHT22;3186;54.062;9.962;2024-03-02T04:41:43;7.90;99.90
6307;DHT22;3186;54.062;9.962;2024-03-02T04:44:09;7.90;99.90
6307;DHT22;3186;54.062;9.962;2024-03-02T04:46:34;8.00;99.90
6307;DHT22;3186;54.062;9.962;2024-03-02T04:49:00;8.00;99.90
6307;DHT22;3186;54.062;9.962;2024-03-02T04:51:25;7.90;99.90
6307;DHT22;3186;54.062;9.962;2024-03-02T04:53:51;8.00;99.90
6307;DHT22;3186;54.062;9.962;2024-03-02T04:56:17;8.00;99.90
6307;DHT22;3186;54.062;9.962;2024-03-02T04:58:57;8.10;99.90
6307;DHT22;3186;54.062;9.962;2024-03-02T05:01:23;8.10;99.90
6307;DHT22;3186;54.062;9.962;2024-03-02T05:03:49;8.10;99.90
6307;DHT22;3186;54.062;9.962;2024-03-02T05:06:14;8.00;99.90
6307;DHT22;3186;54.062;9.962;2024-03-02T05:08:40;8.10;99.90
6307;DHT22;3186;54.062;9.962;2024-03-02T05:11:06;8.20;99.90
6307;DHT22;3186;54.062;9.962;2024-03-02T05:13:50;8.10;99.90
6307;DHT22;3186;54.062;9.962;2024-03-02T05:16:16;8.10;99.90
6307;DHT22;3186;54.062;9.962;2024-03-02T05:18:41;8.10;99.90
6307;DHT22;3186;54.062;9.962;2024-03-02T05:21:07;8.10;99.90
6307;DHT22;3186;54.062;9.962;2024-03-02T05:23:33;8.10;99.90
6307;DHT22;3186;54.062;9.962;2024-03-02T05:25:58;8.10;99.90
6307;DHT22;3186;54.062;9.962;2024-03-02T05:28:24;8.10;99.90
6307;DHT22;3186;54.062;9.962;2024-03-02T05:30:50;8.10;99.90
6307;DHT22;3186;54.062;9.962;2024-03-02T05:33:15;8.10;99.90
6307;DHT22;3186;54.062;9.962;2024-03-02T05:35:41;8.00;99.90
6307;DHT22;3186;54.062;9.962;2024-03-02T05:38:07;8.00;99.90
6307;DHT22;3186;54.062;9.962;2024-03-02T05:40:32;8.00;99.90
6307;DHT22;3186;54.062;9.962;2024-03-02T05:42:58;8.10;99.90
6307;DHT22;3186;54.062;9.962;2024-03-02T05:45:23;8.10;99.90
6307;DHT22;3186;54.062;9.962;2024-03-02T05:47:49;8.00;99.90
6307;DHT22;3186;54.062;9.962;2024-03-02T05:50:15;8.00;99.90
6307;DHT22;3186;54.062;9.962;2024-03-02T05:52:40;8.00;99.90
6307;DHT22;3186;54.062;9.962;2024-03-02T05:55:06;8.00;99.90
6307;DHT22;3186;54.062;9.962;2024-03-02T05:57:32;8.00;99.90
6307;DHT22;3186;54.062;9.962;2024-03-02T06:00:06;8.00;99.90
6307;DHT22;3186;54.062;9.962;2024-03-02T06:02:41;8.00;99.90
6307;DHT22;3186;54.062;9.962;2024-03-02T06:05:06;8.00;99.90
6307;DHT22;3186;54.062;9.962;2024-03-02T06:07:32;8.00;99.90
6307;DHT22;3186;54.062;9.962;2024-03-02T06:09:58;8.00;99.90
6307;DHT22;3186;54.062;9.962;2024-03-02T06:12:24;8.00;99.90
6307;DHT22;3186;54.062;9.962;2024-03-02T06:14:50;8.00;99.90
6307;DHT22;3186;54.062;9.962;2024-03-02T06:17:15;7.90;99.90
6307;DHT22;3186;54.062;9.962;2024-03-02T06:19:42;7.90;99.90
6307;DHT22;3186;54.062;9.962;2024-03-02T06:22:08;7.90;99.90
6307;DHT22;3186;54.062;9.962;2024-03-02T06:24:36;7.90;99.90
6307;DHT22;3186;54.062;9.962;2024-03-02T06:27:03;7.90;99.90
6307;DHT22;3186;54.062;9.962;2024-03-02T06:29:28;7.90;99.90
6307;DHT22;3186;54.062;9.962;2024-03-02T06:31:54;7.90;99.90
6307;DHT22;3186;54.062;9.962;2024-03-02T06:34:20;7.90;99.90
6307;DHT22;3186;54.062;9.962;2024-03-02T06:36:45;7.90;99.90
6307;DHT22;3186;54.062;9.962;2024-03-02T06:39:11;7.90;99.90
6307;DHT22;3186;54.062;9.962;2024-03-02T06:41:38;7.90;99.90
6307;DHT22;3186;54.062;9.962;2024-03-02T06:44:03;7.90;99.90
6307;DHT22;3186;54.062;9.962;2024-03-02T06:46:29;7.80;99.90
6307;DHT22;3186;54.062;9.962;2024-03-02T06:48:55;7.80;99.90
6307;DHT22;3186;54.062;9.962;2024-03-02T06:51:20;7.80;99.90
6307;DHT22;3186;54.062;9.962;2024-03-02T06:53:46;7.80;99.90
6307;DHT22;3186;54.062;9.962;2024-03-02T06:56:12;7.80;99.90
6307;DHT22;3186;54.062;9.962;2024-03-02T06:58:37;7.70;99.90
6307;DHT22;3186;54.062;9.962;2024-03-02T07:01:03;7.70;99.90
6307;DHT22;3186;54.062;9.962;2024-03-02T07:03:29;7.80;99.90
6307;DHT22;3186;54.062;9.962;2024-03-02T07:05:54;7.80;99.90
6307;DHT22;3186;54.062;9.962;2024-03-02T07:08:20;7.80;99.90
6307;DHT22;3186;54.062;9.962;2024-03-02T07:10:45;7.70;99.90
6307;DHT22;3186;54.062;9.962;2024-03-02T07:13:12;7.90;99.90
6307;DHT22;3186;54.062;9.962;2024-03-02T07:15:38;7.90;99.90
6307;DHT22;3186;54.062;9.962;2024-03-02T07:18:22;7.90;99.90
6307;DHT22;3186;54.062;9.962;2024-03-02T07:20:48;7.90;99.90
6307;DHT22;3186;54.062;9.962;2024-03-02T07:23:15;7.80;99.90
6307;DHT22;3186;54.062;9.962;2024-03-02T07:25:40;7.80;99.90
6307;DHT22;3186;54.062;9.962;2024-03-02T07:28:06;7.80;99.90
6307;DHT22;3186;54.062;9.962;2024-03-02T07:30:33;7.80;99.90
6307;DHT22;3186;54.062;9.962;2024-03-02T07:32:59;7.80;99.90
6307;DHT22;3186;54.062;9.962;2024-03-02T07:35:25;7.80;99.90
6307;DHT22;3186;54.062;9.962;2024-03-02T07:37:53;7.80;99.90
6307;DHT22;3186;54.062;9.962;2024-03-02T07:40:19;7.80;99.90
6307;DHT22;3186;54.062;9.962;2024-03-02T07:42:46;7.90;99.90
6307;DHT22;3186;54.062;9.962;2024-03-02T07:45:12;7.80;99.90
6307;DHT22;3186;54.062;9.962;2024-03-02T07:47:37;7.90;99.90
6307;DHT22;3186;54.062;9.962;2024-03-02T07:50:03;7.90;99.90
6307;DHT22;3186;54.062;9.962;2024-03-02T07:52:32;7.90;99.90
6307;DHT22;3186;54.062;9.962;2024-03-02T07:54:57;7.90;99.90
6307;DHT22;3186;54.062;9.962;2024-03-02T07:57:23;8.00;99.90
6307;DHT22;3186;54.062;9.962;2024-03-02T07:59:49;8.00;99.90
6307;DHT22;3186;54.062;9.962;2024-03-02T08:02:15;8.00;99.90
6307;DHT22;3186;54.062;9.962;2024-03-02T08:04:41;8.00;99.90
6307;DHT22;3186;54.062;9.962;2024-03-02T08:07:06;8.10;99.90
6307;DHT22;3186;54.062;9.962;2024-03-02T08:09:32;8.10;99.90
6307;DHT22;3186;54.062;9.962;2024-03-02T08:11:58;8.10;99.90
6307;DHT22;3186;54.062;9.962;2024-03-02T08:14:23;8.20;99.90
6307;DHT22;3186;54.062;9.962;2024-03-02T08:16:49;8.20;99.90
6307;DHT22;3186;54.062;9.962;2024-03-02T08:19:15;8.30;99.90
6307;DHT22;3186;54.062;9.962;2024-03-02T08:21:42;8.30;99.90
6307;DHT22;3186;54.062;9.962;2024-03-02T08:24:08;8.40;99.90
6307;DHT22;3186;54.062;9.962;2024-03-02T08:26:34;8.40;99.90
6307;DHT22;3186;54.062;9.962;2024-03-02T08:29:01;8.40;99.90
6307;DHT22;3186;54.062;9.962;2024-03-02T08:31:30;8.50;99.90
6307;DHT22;3186;54.062;9.962;2024-03-02T08:33:56;8.50;99.90
6307;DHT22;3186;54.062;9.962;2024-03-02T08:36:23;8.50;99.90
6307;DHT22;3186;54.062;9.962;2024-03-02T08:38:49;8.60;99.90
6307;DHT22;3186;54.062;9.962;2024-03-02T08:41:15;8.60;99.90
6307;DHT22;3186;54.062;9.962;2024-03-02T08:43:42;8.60;99.90
6307;DHT22;3186;54.062;9.962;2024-03-02T08:46:08;8.60;99.90
6307;DHT22;3186;54.062;9.962;2024-03-02T08:48:34;8.60;99.90
6307;DHT22;3186;54.062;9.962;2024-03-02T08:51:00;8.70;99.90
6307;DHT22;3186;54.062;9.962;2024-03-02T08:53:26;8.70;99.90
6307;DHT22;3186;54.062;9.962;2024-03-02T08:55:52;8.70;99.90
6307;DHT22;3186;54.062;9.962;2024-03-02T08:58:17;8.70;99.90
6307;DHT22;3186;54.062;9.962;2024-03-02T09:00:43;8.80;99.90
6307;DHT22;3186;54.062;9.962;2024-03-02T09:03:09;8.80;99.90
6307;DHT22;3186;54.062;9.962;2024-03-02T09:05:35;8.90;99.90
6307;DHT22;3186;54.062;9.962;2024-03-02T09:08:01;8.90;99.90
6307;DHT22;3186;54.062;9.962;2024-03-02T09:10:29;8.90;99.90
6307;DHT22;3186;54.062;9.962;2024-03-02T09:12:54;9.00;99.90
6307;DHT22;3186;54.062;9.962;2024-03-02T09:15:20;9.00;99.90
6307;DHT22;3186;54.062;9.962;2024-03-02T09:17:45;9.10;99.90
6307;DHT22;3186;54.062;9.962;2024-03-02T09:20:11;9.20;99.90
6307;DHT22;3186;54.062;9.962;2024-03-02T09:22:37;9.20;99.90
6307;DHT22;3186;54.062;9.962;2024-03-02T09:25:03;9.30;99.90
6307;DHT22;3186;54.062;9.962;2024-03-02T09:27:28;9.30;99.90
6307;DHT22;3186;54.062;9.962;2024-03-02T09:29:54;9.40;99.90
6307;DHT22;3186;54.062;9.962;2024-03-02T09:32:20;9.30;99.90
6307;DHT22;3186;54.062;9.962;2024-03-02T09:34:45;9.40;99.90
6307;DHT22;3186;54.062;9.962;2024-03-02T09:37:13;9.50;99.90
6307;DHT22;3186;54.062;9.962;2024-03-02T09:39:39;9.50;99.90
6307;DHT22;3186;54.062;9.962;2024-03-02T09:42:05;9.60;99.90
6307;DHT22;3186;54.062;9.962;2024-03-02T09:44:31;9.70;99.90
6307;DHT22;3186;54.062;9.962;2024-03-02T09:46:58;9.80;99.90
6307;DHT22;3186;54.062;9.962;2024-03-02T09:49:23;9.80;99.90
6307;DHT22;3186;54.062;9.962;2024-03-02T09:51:49;9.80;99.90
6307;DHT22;3186;54.062;9.962;2024-03-02T09:54:16;9.80;99.90
6307;DHT22;3186;54.062;9.962;2024-03-02T09:56:42;9.90;99.90
6307;DHT22;3186;54.062;9.962;2024-03-02T09:59:08;10.00;99.90
6307;DHT22;3186;54.062;9.962;2024-03-02T10:01:33;10.00;99.90
6307;DHT22;3186;54.062;9.962;2024-03-02T10:03:59;10.10;99.90
6307;DHT22;3186;54.062;9.962;2024-03-02T10:06:29;10.10;99.90
6307;DHT22;3186;54.062;9.962;2024-03-02T10:08:55;10.20;99.90
6307;DHT22;3186;54.062;9.962;2024-03-02T10:11:32;10.30;99.90
6307;DHT22;3186;54.062;9.962;2024-03-02T10:14:24;10.30;99.90
6307;DHT22;3186;54.062;9.962;2024-03-02T10:16:50;10.40;99.90
6307;DHT22;3186;54.062;9.962;2024-03-02T10:19:23;10.50;99.90
6307;DHT22;3186;54.062;9.962;2024-03-02T10:21:54;10.50;99.90
6307;DHT22;3186;54.062;9.962;2024-03-02T10:24:22;10.60;99.90
6307;DHT22;3186;54.062;9.962;2024-03-02T10:26:48;10.60;99.90
6307;DHT22;3186;54.062;9.962;2024-03-02T10:29:14;10.70;99.90
6307;DHT22;3186;54.062;9.962;2024-03-02T10:31:41;10.80;99.90
6307;DHT22;3186;54.062;9.962;2024-03-02T10:34:07;10.90;99.90
6307;DHT22;3186;54.062;9.962;2024-03-02T10:36:34;11.00;99.90
6307;DHT22;3186;54.062;9.962;2024-03-02T10:39:03;10.90;99.90
6307;DHT22;3186;54.062;9.962;2024-03-02T10:41:32;11.20;99.90
6307;DHT22;3186;54.062;9.962;2024-03-02T10:43:59;11.20;99.90
6307;DHT22;3186;54.062;9.962;2024-03-02T10:46:31;11.40;99.90
6307;DHT22;3186;54.062;9.962;2024-03-02T10:48:57;11.60;99.90
6307;DHT22;3186;54.062;9.962;2024-03-02T10:51:27;11.50;99.90
6307;DHT22;3186;54.062;9.962;2024-03-02T10:53:54;11.60;99.90
6307;DHT22;3186;54.062;9.962;2024-03-02T10:56:28;11.60;99.90
6307;DHT22;3186;54.062;9.962;2024-03-02T11:01:43;11.70;99.90
6307;DHT22;3186;54.062;9.962;2024-03-02T11:04:09;11.70;99.90
6307;DHT22;3186;54.062;9.962;2024-03-02T11:06:36;11.90;99.90
6307;DHT22;3186;54.062;9.962;2024-03-02T11:09:08;11.90;99.90
6307;DHT22;3186;54.062;9.962;2024-03-02T11:11:39;11.80;99.20
6307;DHT22;3186;54.062;9.962;2024-03-02T11:14:09;11.90;98.50
6307;DHT22;3186;54.062;9.962;2024-03-02T11:16:38;11.90;99.90
6307;DHT22;3186;54.062;9.962;2024-03-02T11:19:12;12.00;99.90
6307;DHT22;3186;54.062;9.962;2024-03-02T11:21:38;12.10;96.60
6307;DHT22;3186;54.062;9.962;2024-03-02T11:24:28;12.10;96.90
6307;DHT22;3186;54.062;9.962;2024-03-02T11:27:02;12.10;97.20
6307;DHT22;3186;54.062;9.962;2024-03-02T11:32:25;12.20;97.70
6307;DHT22;3186;54.062;9.962;2024-03-02T11:34:50;12.20;97.40
6307;DHT22;3186;54.062;9.962;2024-03-02T11:37:19;12.10;97.30
6307;DHT22;3186;54.062;9.962;2024-03-02T11:39:47;12.10;99.50
6307;DHT22;3186;54.062;9.962;2024-03-02T11:42:15;12.20;96.60
6307;DHT22;3186;54.062;9.962;2024-03-02T11:44:50;12.30;98.40
6307;DHT22;3186;54.062;9.962;2024-03-02T11:47:16;12.30;97.30
6307;DHT22;3186;54.062;9.962;2024-03-02T11:49:50;12.20;93.80
6307;DHT22;3186;54.062;9.962;2024-03-02T11:52:17;12.20;98.70
6307;DHT22;3186;54.062;9.962;2024-03-02T11:54:47;12.20;97.10
6307;DHT22;3186;54.062;9.962;2024-03-02T11:57:17;12.30;99.90
6307;DHT22;3186;54.062;9.962;2024-03-02T11:59:43;12.30;99.30
6307;DHT22;3186;54.062;9.962;2024-03-02T12:02:19;12.40;99.90
6307;DHT22;3186;54.062;9.962;2024-03-02T12:04:46;12.40;97.30
6307;DHT22;3186;54.062;9.962;2024-03-02T12:07:21;12.30;97.30
6307;DHT22;3186;54.062;9.962;2024-03-02T12:09:48;12.30;95.30
6307;DHT22;3186;54.062;9.962;2024-03-02T12:12:14;12.30;94.60
6307;DHT22;3186;54.062;9.962;2024-03-02T12:14:53;12.30;96.30
6307;DHT22;3186;54.062;9.962;2024-03-02T12:17:21;12.30;91.30
6307;DHT22;3186;54.062;9.962;2024-03-02T12:19:46;12.20;83.60
6307;DHT22;3186;54.062;9.962;2024-03-02T12:22:12;12.20;93.20
6307;DHT22;3186;54.062;9.962;2024-03-02T12:24:38;12.30;91.40
6307;DHT22;3186;54.062;9.962;2024-03-02T12:27:05;12.30;84.80
6307;DHT22;3186;54.062;9.962;2024-03-02T12:29:32;12.30;94.70
6307;DHT22;3186;54.062;9.962;2024-03-02T12:31:59;12.30;89.00
6307;DHT22;3186;54.062;9.962;2024-03-02T12:34:27;12.30;90.40
6307;DHT22;3186;54.062;9.962;2024-03-02T12:36:52;12.30;99.90
6307;DHT22;3186;54.062;9.962;2024-03-02T12:39:21;12.40;99.90
6307;DHT22;3186;54.062;9.962;2024-03-02T12:41:50;12.50;97.40
6307;DHT22;3186;54.062;9.962;2024-03-02T12:44:17;12.50;98.30
6307;DHT22;3186;54.062;9.962;2024-03-02T12:46:43;12.50;98.10
6307;DHT22;3186;54.062;9.962;2024-03-02T12:49:10;12.60;99.50
6307;DHT22;3186;54.062;9.962;2024-03-02T12:51:37;12.60;97.50
6307;DHT22;3186;54.062;9.962;2024-03-02T12:54:06;12.70;95.00
6307;DHT22;3186;54.062;9.962;2024-03-02T12:56:32;12.70;99.50
6307;DHT22;3186;54.062;9.962;2024-03-02T12:58:58;12.70;96.10
6307;DHT22;3186;54.062;9.962;2024-03-02T13:01:25;12.60;99.40
6307;DHT22;3186;54.062;9.962;2024-03-02T13:03:52;12.70;97.20
6307;DHT22;3186;54.062;9.962;2024-03-02T13:06:18;12.70;98.80
6307;DHT22;3186;54.062;9.962;2024-03-02T13:08:45;12.70;98.70
6307;DHT22;3186;54.062;9.962;2024-03-02T13:11:11;12.70;99.80
6307;DHT22;3186;54.062;9.962;2024-03-02T13:13:41;12.70;94.70
6307;DHT22;3186;54.062;9.962;2024-03-02T13:16:10;12.70;95.50
6307;DHT22;3186;54.062;9.962;2024-03-02T13:18:36;12.70;94.80
6307;DHT22;3186;54.062;9.962;2024-03-02T13:21:02;12.80;96.80
6307;DHT22;3186;54.062;9.962;2024-03-02T13:23:28;12.80;96.30
6307;DHT22;3186;54.062;9.962;2024-03-02T13:25:57;12.80;95.00
6307;DHT22;3186;54.062;9.962;2024-03-02T13:28:24;12.80;95.20
6307;DHT22;3186;54.062;9.962;2024-03-02T13:30:50;13.00;97.40
6307;DHT22;3186;54.062;9.962;2024-03-02T13:33:15;13.00;91.40
6307;DHT22;3186;54.062;9.962;2024-03-02T13:35:41;12.90;84.90
6307;DHT22;3186;54.062;9.962;2024-03-02T13:38:07;13.00;90.60
6307;DHT22;3186;54.062;9.962;2024-03-02T13:40:33;13.10;90.90
6307;DHT22;3186;54.062;9.962;2024-03-02T13:43:02;13.10;92.80
6307;DHT22;3186;54.062;9.962;2024-03-02T13:45:28;13.10;89.00
6307;DHT22;3186;54.062;9.962;2024-03-02T13:47:54;13.20;90.40
6307;DHT22;3186;54.062;9.962;2024-03-02T13:50:19;13.20;97.70
6307;DHT22;3186;54.062;9.962;2024-03-02T13:52:45;13.20;92.70
6307;DHT22;3186;54.062;9.962;2024-03-02T13:55:11;13.10;82.00
6307;DHT22;3186;54.062;9.962;2024-03-02T13:57:37;13.10;91.40
6307;DHT22;3186;54.062;9.962;2024-03-02T14:00:03;13.20;90.00
6307;DHT22;3186;54.062;9.962;2024-03-02T14:02:37;13.30;87.80
6307;DHT22;3186;54.062;9.962;2024-03-02T14:05:03;13.40;92.50
6307;DHT22;3186;54.062;9.962;2024-03-02T14:07:29;13.40;84.80
6307;DHT22;3186;54.062;9.962;2024-03-02T14:09:55;13.50;91.80
6307;DHT22;3186;54.062;9.962;2024-03-02T14:12:20;13.50;89.80
6307;DHT22;3186;54.062;9.962;2024-03-02T14:14:47;13.70;85.00
6307;DHT22;3186;54.062;9.962;2024-03-02T14:17:13;13.80;84.90
6307;DHT22;3186;54.062;9.962;2024-03-02T14:19:41;14.00;86.10
6307;DHT22;3186;54.062;9.962;2024-03-02T14:22:06;14.10;88.80
6307;DHT22;3186;54.062;9.962;2024-03-02T14:24:32;14.10;94.80
6307;DHT22;3186;54.062;9.962;2024-03-02T14:26:57;14.20;81.70
6307;DHT22;3186;54.062;9.962;2024-03-02T14:29:27;14.30;88.60
6307;DHT22;3186;54.062;9.962;2024-03-02T14:31:52;14.30;71.20
6307;DHT22;3186;54.062;9.962;2024-03-02T14:34:18;14.20;90.80
6307;DHT22;3186;54.062;9.962;2024-03-02T14:36:44;14.20;81.20
6307;DHT22;3186;54.062;9.962;2024-03-02T14:39:10;14.40;78.50
6307;DHT22;3186;54.062;9.962;2024-03-02T14:41:36;14.40;90.20
6307;DHT22;3186;54.062;9.962;2024-03-02T14:44:02;14.40;95.70
6307;DHT22;3186;54.062;9.962;2024-03-02T14:46:28;14.40;85.90
6307;DHT22;3186;54.062;9.962;2024-03-02T14:48:54;14.50;95.40
6307;DHT22;3186;54.062;9.962;2024-03-02T14:51:20;14.50;99.90
6307;DHT22;3186;54.062;9.962;2024-03-02T14:53:45;14.50;95.50
6307;DHT22;3186;54.062;9.962;2024-03-02T14:56:11;14.50;98.10
6307;DHT22;3186;54.062;9.962;2024-03-02T14:58:39;14.60;99.90
6307;DHT22;3186;54.062;9.962;2024-03-02T15:01:05;14.50;99.50
6307;DHT22;3186;54.062;9.962;2024-03-02T15:03:31;14.60;99.90
6307;DHT22;3186;54.062;9.962;2024-03-02T15:05:58;14.50;99.90
6307;DHT22;3186;54.062;9.962;2024-03-02T15:08:23;14.50;95.30
6307;DHT22;3186;54.062;9.962;2024-03-02T15:10:49;14.30;93.50
6307;DHT22;3186;54.062;9.962;2024-03-02T15:13:15;14.50;99.90
6307;DHT22;3186;54.062;9.962;2024-03-02T15:15:41;14.40;96.40
6307;DHT22;3186;54.062;9.962;2024-03-02T15:18:06;14.50;99.90
6307;DHT22;3186;54.062;9.962;2024-03-02T15:20:33;14.40;91.50
6307;DHT22;3186;54.062;9.962;2024-03-02T15:22:59;14.50;99.90
6307;DHT22;3186;54.062;9.962;2024-03-02T15:25:25;14.50;99.90
6307;DHT22;3186;54.062;9.962;2024-03-02T15:27:50;14.40;99.90
6307;DHT22;3186;54.062;9.962;2024-03-02T15:30:16;14.30;93.50
6307;DHT22;3186;54.062;9.962;2024-03-02T15:32:42;14.40;99.90
6307;DHT22;3186;54.062;9.962;2024-03-02T15:35:08;14.50;99.90
6307;DHT22;3186;54.062;9.962;2024-03-02T15:37:34;14.50;99.90
6307;DHT22;3186;54.062;9.962;2024-03-02T15:39:59;14.40;99.90
6307;DHT22;3186;54.062;9.962;2024-03-02T15:42:35;14.20;99.90
6307;DHT22;3186;54.062;9.962;2024-03-02T15:45:01;14.10;99.90
6307;DHT22;3186;54.062;9.962;2024-03-02T15:47:27;14.20;99.90
6307;DHT22;3186;54.062;9.962;2024-03-02T15:49:53;14.20;99.90
6307;DHT22;3186;54.062;9.962;2024-03-02T15:52:19;13.90;91.40
6307;DHT22;3186;54.062;9.962;2024-03-02T15:54:45;14.00;99.90
6307;DHT22;3186;54.062;9.962;2024-03-02T15:57:12;14.00;99.90
6307;DHT22;3186;54.062;9.962;2024-03-02T15:59:37;14.10;99.90
6307;DHT22;3186;54.062;9.962;2024-03-02T16:02:03;14.00;99.90
6307;DHT22;3186;54.062;9.962;2024-03-02T16:04:29;14.20;99.90
6307;DHT22;3186;54.062;9.962;2024-03-02T16:06:55;14.40;99.90
6307;DHT22;3186;54.062;9.962;2024-03-02T16:09:20;14.30;99.90
6307;DHT22;3186;54.062;9.962;2024-03-02T16:11:46;14.40;99.90
6307;DHT22;3186;54.062;9.962;2024-03-02T16:14:14;14.30;99.90
6307;DHT22;3186;54.062;9.962;2024-03-02T16:16:40;14.30;99.90
6307;DHT22;3186;54.062;9.962;2024-03-02T16:19:05;14.20;99.90